sensor_id;sensor_type;location;lat;lon;timestamp;temperature;humidity
7016;DHT22;3548;48.402;9.990;2024-03-02T00:00:50;6.00;99.90
7016;DHT22;3548;48.402;9.990;2024-03-02T00:03:17;6.00;99.90
7016;DHT22;3548;48.402;9.990;2024-03-02T00:05:42;6.00;99.90
7016;DHT22;3548;48.402;9.990;2024-03-02T00:08:08;6.00;99.90
7016;DHT22;3548;48.402;9.990;2024-03-02T00:10:38;6.00;99.90
7016;DHT22;3548;48.402;9.990;2024-03-02T00:13:08;6.00;99.90
7016;DHT22;3548;48.402;9.990;2024-03-02T00:18:12;5.90;99.90
7016;DHT22;3548;48.402;9.990;2024-03-02T00:20:38;5.80;99.90
7016;DHT22;3548;48.402;9.990;2024-03-02T00:23:09;5.80;99.90
7016;DHT22;3548;48.402;9.990;2024-03-02T00:25:49;5.80;99.90
7016;DHT22;3548;48.402;9.990;2024-03-02T00:28:33;5.80;99.90
7016;DHT22;3548;48.402;9.990;2024-03-02T00:31:12;5.80;99.90
7016;DHT22;3548;48.402;9.990;2024-03-02T00:33:45;5.80;99.90
7016;DHT22;3548;48.402;9.990;2024-03-02T00:36:15;5.80;99.90
7016;DHT22;3548;48.402;9.990;2024-03-02T00:38:51;5.90;99.90
7016;DHT22;3548;48.402;9.990;2024-03-02T00:41:27;5.90;99.90
7016;DHT22;3548;48.402;9.990;2024-03-02T00:44:04;5.90;99.90
7016;DHT22;3548;48.402;9.990;2024-03-02T00:49:02;6.00;99.90
7016;DHT22;3548;48.402;9.990;2024-03-02T00:51:31;6.00;99.90
7016;DHT22;3548;48.402;9.990;2024-03-02T00:54:05;6.00;99.90
7016;DHT22;3548;48.402;9.990;2024-03-02T00:56:32;6.00;99.90
7016;DHT22;3548;48.402;9.990;2024-03-02T00:58:58;6.10;99.90
7016;DHT22;3548;48.402;9.990;2024-03-02T01:01:23;6.10;99.90
7016;DHT22;3548;48.402;9.990;2024-03-02T01:03:49;6.10;99.90
7016;DHT22;3548;48.402;9.990;2024-03-02T01:06:15;6.10;99.90
7016;DHT22;3548;48.402;9.990;2024-03-02T01:08:41;6.10;99.90
7016;DHT22;3548;48.402;9.990;2024-03-02T01:11:07;6.10;99.90
7016;DHT22;3548;48.402;9.990;2024-03-02T01:13:33;6.00;99.90
7016;DHT22;3548;48.402;9.990;2024-03-02T01:15:59;6.00;99.90
7016;DHT22;3548;48.402;9.990;2024-03-02T01:18:25;6.00;99.90
7016;DHT22;3548;48.402;9.990;2024-03-02T01:20:51;6.10;99.90
7016;DHT22;3548;48.402;9.990;2024-03-02T01:23:18;6.10;99.90
7016;DHT22;3548;48.402;9.990;2024-03-02T01:25:45;6.20;99.90
7016;DHT22;3548;48.402;9.990;2024-03-02T01:28:11;6.10;99.90
7016;DHT22;3548;48.402;9.990;2024-03-02T01:30:36;6.20;99.90
7016;DHT22;3548;48.402;9.990;2024-03-02T01:33:02;6.20;99.90
7016;DHT22;3548;48.402;9.990;2024-03-02T01:35:30;6.20;99.90
7016;DHT22;3548;48.402;9.990;2024-03-02T01:37:56;6.20;99.90
7016;DHT22;3548;48.402;9.990;2024-03-02T01:40:22;6.20;99.90
7016;DHT22;3548;48.402;9.990;2024-03-02T01:42:51;6.20;99.90
7016;DHT22;3548;48.402;9.990;2024-03-02T01:45:17;6.10;99.90
7016;DHT22;3548;48.402;9.990;2024-03-02T01:47:43;6.10;99.90
7016;DHT22;3548;48.402;9.990;2024-03-02T01:50:09;6.10;99.90
7016;DHT22;3548;48.402;9.990;2024-03-02T01:52:36;6.00;99.90
7016;DHT22;3548;48.402;9.990;2024-03-02T01:55:02;6.00;99.90
7016;DHT22;3548;48.402;9.990;2024-03-02T01:57:29;6.10;99.90
7016;DHT22;3548;48.402;9.990;2024-03-02T01:59:55;6.00;99.90
7016;DHT22;3548;48.402;9.990;2024-03-02T02:02:20;6.00;99.90
7016;DHT22;3548;48.402;9.990;2024-03-02T02:04:46;6.00;99.90
7016;DHT22;3548;48.402;9.990;2024-03-02T02:07:11;6.00;99.90
7016;DHT22;3548;48.402;9.990;2024-03-02T02:09:42;6.00;99.90
7016;DHT22;3548;48.402;9.990;2024-03-02T02:12:09;6.00;99.90
7016;DHT22;3548;48.402;9.990;2024-03-02T02:14:35;6.10;99.90
7016;DHT22;3548;48.402;9.990;2024-03-02T02:17:00;6.10;99.90
7016;DHT22;3548;48.402;9.990;2024-03-02T02:19:26;6.00;99.90
7016;DHT22;3548;48.402;9.990;2024-03-02T02:21:51;6.00;99.90
7016;DHT22;3548;48.402;9.990;2024-03-02T02:24:17;6.00;99.90
7016;DHT22;3548;48.402;9.990;2024-03-02T02:26:43;6.00;99.90
7016;DHT22;3548;48.402;9.990;2024-03-02T02:29:08;6.00;99.90
7016;DHT22;3548;48.402;9.990;2024-03-02T02:31:40;5.90;99.90
7016;DHT22;3548;48.402;9.990;2024-03-02T02:34:06;5.90;99.90
7016;DHT22;3548;48.402;9.990;2024-03-02T02:36:32;5.80;99.90
7016;DHT22;3548;48.402;9.990;2024-03-02T02:39:00;5.80;99.90
7016;DHT22;3548;48.402;9.990;2024-03-02T02:41:28;5.70;99.90
7016;DHT22;3548;48.402;9.990;2024-03-02T02:43:55;5.70;99.90
7016;DHT22;3548;48.402;9.990;2024-03-02T02:46:20;5.70;99.90
7016;DHT22;3548;48.402;9.990;2024-03-02T02:48:46;5.70;99.90
7016;DHT22;3548;48.402;9.990;2024-03-02T02:51:12;5.70;99.90
7016;DHT22;3548;48.402;9.990;2024-03-02T02:53:37;5.70;99.90
7016;DHT22;3548;48.402;9.990;2024-03-02T02:56:08;5.70;99.90
7016;DHT22;3548;48.402;9.990;2024-03-02T02:58:34;5.70;99.90
7016;DHT22;3548;48.402;9.990;2024-03-02T03:01:00;5.60;99.90
7016;DHT22;3548;48.402;9.990;2024-03-02T03:03:26;5.60;99.90
7016;DHT22;3548;48.402;9.990;2024-03-02T03:05:51;5.60;99.90
7016;DHT22;3548;48.402;9.990;2024-03-02T03:08:17;5.60;99.90
7016;DHT22;3548;48.402;9.990;2024-03-02T03:10:42;5.60;99.90
7016;DHT22;3548;48.402;9.990;2024-03-02T03:13:08;5.60;99.90
7016;DHT22;3548;48.402;9.990;2024-03-02T03:15:37;5.60;99.90
7016;DHT22;3548;48.402;9.990;2024-03-02T03:18:03;5.60;99.90
7016;DHT22;3548;48.402;9.990;2024-03-02T03:20:30;5.60;99.90
7016;DHT22;3548;48.402;9.990;2024-03-02T03:22:56;5.60;99.90
7016;DHT22;3548;48.402;9.990;2024-03-02T03:25:22;5.60;99.90
7016;DHT22;3548;48.402;9.990;2024-03-02T03:27:48;5.60;99.90
7016;DHT22;3548;48.402;9.990;2024-03-02T03:30:14;5.60;99.90
7016;DHT22;3548;48.402;9.990;2024-03-02T03:32:39;5.70;99.90
7016;DHT22;3548;48.402;9.990;2024-03-02T03:35:05;5.60;99.90
7016;DHT22;3548;48.402;9.990;2024-03-02T03:37:31;5.70;99.90
7016;DHT22;3548;48.402;9.990;2024-03-02T03:39:59;5.60;99.90
7016;DHT22;3548;48.402;9.990;2024-03-02T03:42:24;5.60;99.90
7016;DHT22;3548;48.402;9.990;2024-03-02T03:44:50;5.60;99.90
7016;DHT22;3548;48.402;9.990;2024-03-02T03:47:15;5.60;99.90
7016;DHT22;3548;48.402;9.990;2024-03-02T03:49:41;5.60;99.90
7016;DHT22;3548;48.402;9.990;2024-03-02T03:52:06;5.50;99.90
7016;DHT22;3548;48.402;9.990;2024-03-02T03:54:32;5.40;99.90
7016;DHT22;3548;48.402;9.990;2024-03-02T03:56:57;5.40;99.90
7016;DHT22;3548;48.402;9.990;2024-03-02T03:59:23;5.40;99.90
7016;DHT22;3548;48.402;9.990;2024-03-02T04:01:49;5.40;99.90
7016;DHT22;3548;48.402;9.990;2024-03-02T04:04:14;5.40;99.90
7016;DHT22;3548;48.402;9.990;2024-03-02T04:06:40;5.40;99.90
7016;DHT22;3548;48.402;9.990;2024-03-02T04:09:06;5.40;99.90
7016;DHT22;3548;48.402;9.990;2024-03-02T04:11:31;5.40;99.90
7016;DHT22;3548;48.402;9.990;2024-03-02T04:13:57;5.40;99.90
7016;DHT22;3548;48.402;9.990;2024-03-02T04:16:22;5.30;99.90
7016;DHT22;3548;48.402;9.990;2024-03-02T04:18:48;5.30;99.90
7016;DHT22;3548;48.402;9.990;2024-03-02T04:21:14;5.30;99.90
7016;DHT22;3548;48.402;9.990;2024-03-02T04:23:39;5.30;99.90
7016;DHT22;3548;48.402;9.990;2024-03-02T04:26:05;5.30;99.90
7016;DHT22;3548;48.402;9.990;2024-03-02T04:28:30;5.30;99.90
7016;DHT22;3548;48.402;9.990;2024-03-02T04:30:56;5.30;99.90
7016;DHT22;3548;48.402;9.990;2024-03-02T04:33:21;5.20;99.90
7016;DHT22;3548;48.402;9.990;2024-03-02T04:35:47;5.20;99.90
7016;DHT22;3548;48.402;9.990;2024-03-02T04:38:12;5.20;99.90
7016;DHT22;3548;48.402;9.990;2024-03-02T04:40:38;5.20;99.90
7016;DHT22;3548;48.402;9.990;2024-03-02T04:43:03;5.20;99.90
7016;DHT22;3548;48.402;9.990;2024-03-02T04:45:29;5.20;99.90
7016;DHT22;3548;48.402;9.990;2024-03-02T04:47:55;5.20;99.90
7016;DHT22;3548;48.402;9.990;2024-03-02T04:50:20;5.20;99.90
7016;DHT22;3548;48.402;9.990;2024-03-02T04:52:46;5.20;99.90
7016;DHT22;3548;48.402;9.990;2024-03-02T04:55:11;5.20;99.90
7016;DHT22;3548;48.402;9.990;2024-03-02T04:57:43;5.30;99.90
7016;DHT22;3548;48.402;9.990;2024-03-02T05:00:10;5.30;99.90
7016;DHT22;3548;48.402;9.990;2024-03-02T05:02:35;5.30;99.90
7016;DHT22;3548;48.402;9.990;2024-03-02T05:05:01;5.30;99.90
7016;DHT22;3548;48.402;9.990;2024-03-02T05:07:27;5.40;99.90
7016;DHT22;3548;48.402;9.990;2024-03-02T05:09:53;5.40;99.90
7016;DHT22;3548;48.402;9.990;2024-03-02T05:12:18;5.30;99.90
7016;DHT22;3548;48.402;9.990;2024-03-02T05:15:02;5.30;99.90
7016;DHT22;3548;48.402;9.990;2024-03-02T05:17:29;5.30;99.90
7016;DHT22;3548;48.402;9.990;2024-03-02T05:19:54;5.30;99.90
7016;DHT22;3548;48.402;9.990;2024-03-02T05:22:20;5.30;99.90
7016;DHT22;3548;48.402;9.990;2024-03-02T05:24:45;5.30;99.90
7016;DHT22;3548;48.402;9.990;2024-03-02T05:27:11;5.20;99.90
7016;DHT22;3548;48.402;9.990;2024-03-02T05:29:36;5.20;99.90
7016;DHT22;3548;48.402;9.990;2024-03-02T05:32:02;5.20;99.90
7016;DHT22;3548;48.402;9.990;2024-03-02T05:34:27;5.20;99.90
7016;DHT22;3548;48.402;9.990;2024-03-02T05:36:53;5.20;99.90
7016;DHT22;3548;48.402;9.990;2024-03-02T05:39:18;5.10;99.90
7016;DHT22;3548;48.402;9.990;2024-03-02T05:41:44;5.10;99.90
7016;DHT22;3548;48.402;9.990;2024-03-02T05:44:09;5.10;99.90
7016;DHT22;3548;48.402;9.990;2024-03-02T05:46:35;5.10;99.90
7016;DHT22;3548;48.402;9.990;2024-03-02T05:49:00;5.00;99.90
7016;DHT22;3548;48.402;9.990;2024-03-02T05:51:26;5.00;99.90
7016;DHT22;3548;48.402;9.990;2024-03-02T05:53:52;5.10;99.90
7016;DHT22;3548;48.402;9.990;2024-03-02T05:56:17;5.10;99.90
7016;DHT22;3548;48.402;9.990;2024-03-02T05:58:43;5.00;99.90
7016;DHT22;3548;48.402;9.990;2024-03-02T06:01:27;5.00;99.90
7016;DHT22;3548;48.402;9.990;2024-03-02T06:03:56;5.10;99.90
7016;DHT22;3548;48.402;9.990;2024-03-02T06:06:22;5.00;99.90
7016;DHT22;3548;48.402;9.990;2024-03-02T06:08:48;5.00;99.90
7016;DHT22;3548;48.402;9.990;2024-03-02T06:11:13;5.10;99.90
7016;DHT22;3548;48.402;9.990;2024-03-02T06:13:39;5.10;99.90
7016;DHT22;3548;48.402;9.990;2024-03-02T06:16:05;5.10;99.90
7016;DHT22;3548;48.402;9.990;2024-03-02T06:18:30;5.10;99.90
7016;DHT22;3548;48.402;9.990;2024-03-02T06:20:56;5.10;99.90
7016;DHT22;3548;48.402;9.990;2024-03-02T06:23:21;5.20;99.90
7016;DHT22;3548;48.402;9.990;2024-03-02T06:25:47;5.20;99.90
7016;DHT22;3548;48.402;9.990;2024-03-02T06:28:12;5.30;99.90
7016;DHT22;3548;48.402;9.990;2024-03-02T06:30:41;5.30;99.90
7016;DHT22;3548;48.402;9.990;2024-03-02T06:33:07;5.30;99.90
7016;DHT22;3548;48.402;9.990;2024-03-02T06:35:32;5.30;99.90
7016;DHT22;3548;48.402;9.990;2024-03-02T06:37:58;5.40;99.90
7016;DHT22;3548;48.402;9.990;2024-03-02T06:40:23;5.30;99.90
7016;DHT22;3548;48.402;9.990;2024-03-02T06:42:49;5.40;99.90
7016;DHT22;3548;48.402;9.990;2024-03-02T06:45:14;5.40;99.90
7016;DHT22;3548;48.402;9.990;2024-03-02T06:47:40;5.40;99.90
7016;DHT22;3548;48.402;9.990;2024-03-02T06:50:05;5.40;99.90
7016;DHT22;3548;48.402;9.990;2024-03-02T06:52:32;5.40;99.90
7016;DHT22;3548;48.402;9.990;2024-03-02T06:54:57;5.40;99.90
7016;DHT22;3548;48.402;9.990;2024-03-02T06:57:23;5.30;99.90
7016;DHT22;3548;48.402;9.990;2024-03-02T06:59:50;5.30;99.90
7016;DHT22;3548;48.402;9.990;2024-03-02T07:02:16;5.30;99.90
7016;DHT22;3548;48.402;9.990;2024-03-02T07:04:42;5.30;99.90
7016;DHT22;3548;48.402;9.990;2024-03-02T07:07:08;5.30;99.90
7016;DHT22;3548;48.402;9.990;2024-03-02T07:09:33;5.30;99.90
7016;DHT22;3548;48.402;9.990;2024-03-02T07:11:59;5.30;99.90
7016;DHT22;3548;48.402;9.990;2024-03-02T07:14:24;5.30;99.90
7016;DHT22;3548;48.402;9.990;2024-03-02T07:17:10;5.40;99.90
7016;DHT22;3548;48.402;9.990;2024-03-02T07:19:35;5.40;99.90
7016;DHT22;3548;48.402;9.990;2024-03-02T07:22:01;5.50;99.90
7016;DHT22;3548;48.402;9.990;2024-03-02T07:24:30;5.50;99.90
7016;DHT22;3548;48.402;9.990;2024-03-02T07:26:56;5.60;99.90
7016;DHT22;3548;48.402;9.990;2024-03-02T07:29:21;5.50;99.90
7016;DHT22;3548;48.402;9.990;2024-03-02T07:31:47;5.60;99.90
7016;DHT22;3548;48.402;9.990;2024-03-02T07:34:13;5.60;99.90
7016;DHT22;3548;48.402;9.990;2024-03-02T07:36:39;5.60;99.90
7016;DHT22;3548;48.402;9.990;2024-03-02T07:39:04;5.60;99.90
7016;DHT22;3548;48.402;9.990;2024-03-02T07:41:30;5.70;99.90
7016;DHT22;3548;48.402;9.990;2024-03-02T07:43:56;5.70;99.90
7016;DHT22;3548;48.402;9.990;2024-03-02T07:46:22;5.70;99.90
7016;DHT22;3548;48.402;9.990;2024-03-02T07:48:47;5.70;99.90
7016;DHT22;3548;48.402;9.990;2024-03-02T07:51:13;5.70;99.90
7016;DHT22;3548;48.402;9.990;2024-03-02T07:53:39;5.70;99.90
7016;DHT22;3548;48.402;9.990;2024-03-02T07:56:05;5.70;99.90
7016;DHT22;3548;48.402;9.990;2024-03-02T07:58:31;5.70;99.90
7016;DHT22;3548;48.402;9.990;2024-03-02T08:00:59;5.80;99.90
7016;DHT22;3548;48.402;9.990;2024-03-02T08:03:26;5.80;99.90
7016;DHT22;3548;48.402;9.990;2024-03-02T08:05:52;5.80;99.90
7016;DHT22;3548;48.402;9.990;2024-03-02T08:08:18;5.90;99.90
7016;DHT22;3548;48.402;9.990;2024-03-02T08:10:43;5.90;99.90
7016;DHT22;3548;48.402;9.990;2024-03-02T08:13:09;5.90;99.90
7016;DHT22;3548;48.402;9.990;2024-03-02T08:15:34;5.90;99.90
7016;DHT22;3548;48.402;9.990;2024-03-02T08:18:00;6.00;99.90
7016;DHT22;3548;48.402;9.990;2024-03-02T08:20:26;6.00;99.90
7016;DHT22;3548;48.402;9.990;2024-03-02T08:22:51;5.90;99.90
7016;DHT22;3548;48.402;9.990;2024-03-02T08:25:20;5.80;99.90
7016;DHT22;3548;48.402;9.990;2024-03-02T08:27:46;5.80;99.90
7016;DHT22;3548;48.402;9.990;2024-03-02T08:30:12;5.80;99.90
7016;DHT22;3548;48.402;9.990;2024-03-02T08:32:37;5.90;99.90
7016;DHT22;3548;48.402;9.990;2024-03-02T08:35:04;5.80;99.90
7016;DHT22;3548;48.402;9.990;2024-03-02T08:37:29;5.80;99.90
7016;DHT22;3548;48.402;9.990;2024-03-02T08:39:55;5.80;99.90
7016;DHT22;3548;48.402;9.990;2024-03-02T08:42:21;5.80;99.90
7016;DHT22;3548;48.402;9.990;2024-03-02T08:44:47;5.90;99.90
7016;DHT22;3548;48.402;9.990;2024-03-02T08:47:12;6.00;99.90
7016;DHT22;3548;48.402;9.990;2024-03-02T08:49:38;6.00;99.90
7016;DHT22;3548;48.402;9.990;2024-03-02T08:52:04;6.00;99.90
7016;DHT22;3548;48.402;9.990;2024-03-02T08:54:29;6.10;99.90
7016;DHT22;3548;48.402;9.990;2024-03-02T08:56:55;6.10;99.90
7016;DHT22;3548;48.402;9.990;2024-03-02T08:59:21;6.30;99.90
7016;DHT22;3548;48.402;9.990;2024-03-02T09:01:46;6.50;99.90
7016;DHT22;3548;48.402;9.990;2024-03-02T09:04:12;6.60;99.90
7016;DHT22;3548;48.402;9.990;2024-03-02T09:06:37;6.70;99.90
7016;DHT22;3548;48.402;9.990;2024-03-02T09:09:03;6.70;99.90
7016;DHT22;3548;48.402;9.990;2024-03-02T09:11:30;6.80;99.90
7016;DHT22;3548;48.402;9.990;2024-03-02T09:13:55;6.70;99.90
7016;DHT22;3548;48.402;9.990;2024-03-02T09:16:22;6.80;99.90
7016;DHT22;3548;48.402;9.990;2024-03-02T09:18:47;6.90;99.90
7016;DHT22;3548;48.402;9.990;2024-03-02T09:21:13;7.00;99.90
7016;DHT22;3548;48.402;9.990;2024-03-02T09:23:38;7.20;99.90
7016;DHT22;3548;48.402;9.990;2024-03-02T09:26:05;7.40;99.90
7016;DHT22;3548;48.402;9.990;2024-03-02T09:28:31;7.60;99.90
7016;DHT22;3548;48.402;9.990;2024-03-02T09:30:56;7.70;99.90
7016;DHT22;3548;48.402;9.990;2024-03-02T09:33:22;7.90;99.90
7016;DHT22;3548;48.402;9.990;2024-03-02T09:35:47;8.00;99.90
7016;DHT22;3548;48.402;9.990;2024-03-02T09:38:14;8.10;99.90
7016;DHT22;3548;48.402;9.990;2024-03-02T09:40:41;8.10;99.90
7016;DHT22;3548;48.402;9.990;2024-03-02T09:43:07;8.30;99.90
7016;DHT22;3548;48.402;9.990;2024-03-02T09:45:33;8.40;99.90
7016;DHT22;3548;48.402;9.990;2024-03-02T09:47:59;8.40;99.90
7016;DHT22;3548;48.402;9.990;2024-03-02T09:50:25;8.30;99.90
7016;DHT22;3548;48.402;9.990;2024-03-02T09:52:50;8.30;99.90
7016;DHT22;3548;48.402;9.990;2024-03-02T09:55:18;8.40;99.90
7016;DHT22;3548;48.402;9.990;2024-03-02T09:57:45;8.60;99.90
7016;DHT22;3548;48.402;9.990;2024-03-02T10:00:11;8.70;99.90
7016;DHT22;3548;48.402;9.990;2024-03-02T10:02:43;8.90;99.90
7016;DHT22;3548;48.402;9.990;2024-03-02T10:05:09;9.00;99.90
7016;DHT22;3548;48.402;9.990;2024-03-02T10:07:35;9.10;99.90
7016;DHT22;3548;48.402;9.990;2024-03-02T10:10:13;9.00;99.90
7016;DHT22;3548;48.402;9.990;2024-03-02T10:12:39;8.80;99.90
7016;DHT22;3548;48.402;9.990;2024-03-02T10:15:05;8.70;99.90
7016;DHT22;3548;48.402;9.990;2024-03-02T10:17:31;8.70;99.90
7016;DHT22;3548;48.402;9.990;2024-03-02T10:19:57;8.50;99.90
7016;DHT22;3548;48.402;9.990;2024-03-02T10:22:23;8.40;99.90
7016;DHT22;3548;48.402;9.990;2024-03-02T10:24:49;8.40;99.90
7016;DHT22;3548;48.402;9.990;2024-03-02T10:27:27;8.50;99.90
7016;DHT22;3548;48.402;9.990;2024-03-02T10:29:53;8.60;99.90
7016;DHT22;3548;48.402;9.990;2024-03-02T10:32:22;8.80;99.90
7016;DHT22;3548;48.402;9.990;2024-03-02T10:34:47;8.90;99.90
7016;DHT22;3548;48.402;9.990;2024-03-02T10:37:14;9.00;99.90
7016;DHT22;3548;48.402;9.990;2024-03-02T10:39:40;9.20;99.90
7016;DHT22;3548;48.402;9.990;2024-03-02T10:42:06;9.30;99.90
7016;DHT22;3548;48.402;9.990;2024-03-02T10:44:32;9.40;99.90
7016;DHT22;3548;48.402;9.990;2024-03-02T10:47:03;9.50;99.90
7016;DHT22;3548;48.402;9.990;2024-03-02T10:49:32;9.50;99.90
7016;DHT22;3548;48.402;9.990;2024-03-02T10:52:01;9.40;99.90
7016;DHT22;3548;48.402;9.990;2024-03-02T10:54:27;9.50;99.90
7016;DHT22;3548;48.402;9.990;2024-03-02T10:56:58;9.50;99.90
7016;DHT22;3548;48.402;9.990;2024-03-02T10:59:27;9.50;99.90
7016;DHT22;3548;48.402;9.990;2024-03-02T11:01:58;9.70;99.90
7016;DHT22;3548;48.402;9.990;2024-03-02T11:04:26;9.90;99.90
7016;DHT22;3548;48.402;9.990;2024-03-02T11:06:53;9.80;99.90
7016;DHT22;3548;48.402;9.990;2024-03-02T11:09:21;10.10;99.90
7016;DHT22;3548;48.402;9.990;2024-03-02T11:12:00;10.10;99.90
7016;DHT22;3548;48.402;9.990;2024-03-02T11:14:30;10.10;99.90
7016;DHT22;3548;48.402;9.990;2024-03-02T11:16:58;10.10;99.90
7016;DHT22;3548;48.402;9.990;2024-03-02T11:19:25;10.20;99.90
7016;DHT22;3548;48.402;9.990;2024-03-02T11:21:51;10.40;99.90
7016;DHT22;3548;48.402;9.990;2024-03-02T11:26:53;10.40;99.90
7016;DHT22;3548;48.402;9.990;2024-03-02T11:32:16;10.70;99.90
7016;DHT22;3548;48.402;9.990;2024-03-02T11:34:45;10.80;99.90
7016;DHT22;3548;48.402;9.990;2024-03-02T11:37:12;11.00;99.90
7016;DHT22;3548;48.402;9.990;2024-03-02T11:39:43;10.90;99.90
7016;DHT22;3548;48.402;9.990;2024-03-02T11:42:09;10.80;99.90
7016;DHT22;3548;48.402;9.990;2024-03-02T11:44:37;10.70;99.90
7016;DHT22;3548;48.402;9.990;2024-03-02T11:47:06;10.70;99.90
7016;DHT22;3548;48.402;9.990;2024-03-02T11:49:44;10.60;99.90
7016;DHT22;3548;48.402;9.990;2024-03-02T11:52:14;10.50;99.90
7016;DHT22;3548;48.402;9.990;2024-03-02T11:54:42;10.60;99.90
7016;DHT22;3548;48.402;9.990;2024-03-02T11:57:12;10.60;99.90
7016;DHT22;3548;48.402;9.990;2024-03-02T11:59:38;10.70;99.90
7016;DHT22;3548;48.402;9.990;2024-03-02T12:02:03;10.80;99.90
7016;DHT22;3548;48.402;9.990;2024-03-02T12:04:29;10.80;99.90
7016;DHT22;3548;48.402;9.990;2024-03-02T12:06:58;10.70;99.90
7016;DHT22;3548;48.402;9.990;2024-03-02T12:09:28;10.80;99.90
7016;DHT22;3548;48.402;9.990;2024-03-02T12:12:11;11.00;99.90
7016;DHT22;3548;48.402;9.990;2024-03-02T12:14:40;11.20;99.90
7016;DHT22;3548;48.402;9.990;2024-03-02T12:17:05;11.30;99.90
7016;DHT22;3548;48.402;9.990;2024-03-02T12:19:32;11.50;99.90
7016;DHT22;3548;48.402;9.990;2024-03-02T12:21:59;11.50;99.90
7016;DHT22;3548;48.402;9.990;2024-03-02T12:24:27;11.50;99.90
7016;DHT22;3548;48.402;9.990;2024-03-02T12:26:53;11.60;99.90
7016;DHT22;3548;48.402;9.990;2024-03-02T12:29:20;11.60;99.90
7016;DHT22;3548;48.402;9.990;2024-03-02T12:31:51;11.70;99.90
7016;DHT22;3548;48.402;9.990;2024-03-02T12:34:18;11.50;99.90
7016;DHT22;3548;48.402;9.990;2024-03-02T12:36:45;11.30;99.90
7016;DHT22;3548;48.402;9.990;2024-03-02T12:39:13;11.20;99.90
7016;DHT22;3548;48.402;9.990;2024-03-02T12:41:39;11.20;99.90
7016;DHT22;3548;48.402;9.990;2024-03-02T12:44:05;11.20;99.90
7016;DHT22;3548;48.402;9.990;2024-03-02T12:46:32;11.30;99.90
7016;DHT22;3548;48.402;9.990;2024-03-02T12:48:58;11.50;99.90
7016;DHT22;3548;48.402;9.990;2024-03-02T12:51:24;11.70;99.90
7016;DHT22;3548;48.402;9.990;2024-03-02T12:53:57;11.60;99.90
7016;DHT22;3548;48.402;9.990;2024-03-02T12:56:23;11.60;99.90
7016;DHT22;3548;48.402;9.990;2024-03-02T12:58:56;11.80;99.90
7016;DHT22;3548;48.402;9.990;2024-03-02T13:01:21;11.90;99.90
7016;DHT22;3548;48.402;9.990;2024-03-02T13:03:50;11.90;99.90
7016;DHT22;3548;48.402;9.990;2024-03-02T13:06:16;11.90;99.90
7016;DHT22;3548;48.402;9.990;2024-03-02T13:08:42;11.70;99.90
7016;DHT22;3548;48.402;9.990;2024-03-02T13:11:08;11.70;99.90
7016;DHT22;3548;48.402;9.990;2024-03-02T13:13:34;11.70;99.90
7016;DHT22;3548;48.402;9.990;2024-03-02T13:16:00;11.80;99.90
7016;DHT22;3548;48.402;9.990;2024-03-02T13:18:27;11.90;99.90
7016;DHT22;3548;48.402;9.990;2024-03-02T13:20:53;11.90;99.90
7016;DHT22;3548;48.402;9.990;2024-03-02T13:23:21;11.80;99.90
7016;DHT22;3548;48.402;9.990;2024-03-02T13:25:46;11.90;99.90
7016;DHT22;3548;48.402;9.990;2024-03-02T13:28:13;11.70;99.90
7016;DHT22;3548;48.402;9.990;2024-03-02T13:30:38;11.80;99.90
7016;DHT22;3548;48.402;9.990;2024-03-02T13:33:04;11.80;99.90
7016;DHT22;3548;48.402;9.990;2024-03-02T13:35:29;11.90;99.90
7016;DHT22;3548;48.402;9.990;2024-03-02T13:37:55;11.90;99.90
7016;DHT22;3548;48.402;9.990;2024-03-02T13:40:21;11.80;99.90
7016;DHT22;3548;48.402;9.990;2024-03-02T13:42:46;11.90;99.90
7016;DHT22;3548;48.402;9.990;2024-03-02T13:45:13;11.90;99.90
7016;DHT22;3548;48.402;9.990;2024-03-02T13:47:38;11.90;99.90
7016;DHT22;3548;48.402;9.990;2024-03-02T13:50:04;11.90;99.90
7016;DHT22;3548;48.402;9.990;2024-03-02T13:52:30;12.00;99.90
7016;DHT22;3548;48.402;9.990;2024-03-02T13:54:56;12.00;99.90
7016;DHT22;3548;48.402;9.990;2024-03-02T13:57:22;12.00;99.90
7016;DHT22;3548;48.402;9.990;2024-03-02T13:59:47;12.00;99.90
7016;DHT22;3548;48.402;9.990;2024-03-02T14:02:13;12.00;99.90
7016;DHT22;3548;48.402;9.990;2024-03-02T14:04:39;12.10;99.90
7016;DHT22;3548;48.402;9.990;2024-03-02T14:07:05;12.20;99.90
7016;DHT22;3548;48.402;9.990;2024-03-02T14:09:34;12.30;99.90
7016;DHT22;3548;48.402;9.990;2024-03-02T14:12:00;12.30;99.90
7016;DHT22;3548;48.402;9.990;2024-03-02T14:14:26;12.40;99.90
7016;DHT22;3548;48.402;9.990;2024-03-02T14:16:52;12.40;99.90
7016;DHT22;3548;48.402;9.990;2024-03-02T14:19:18;12.30;99.90
7016;DHT22;3548;48.402;9.990;2024-03-02T14:21:44;12.40;99.90
7016;DHT22;3548;48.402;9.990;2024-03-02T14:24:09;12.30;99.90
7016;DHT22;3548;48.402;9.990;2024-03-02T14:26:35;12.40;99.90
7016;DHT22;3548;48.402;9.990;2024-03-02T14:29:04;12.50;99.90
7016;DHT22;3548;48.402;9.990;2024-03-02T14:31:31;12.50;99.90
7016;DHT22;3548;48.402;9.990;2024-03-02T14:33:57;12.60;99.90
7016;DHT22;3548;48.402;9.990;2024-03-02T14:36:22;12.70;99.90
7016;DHT22;3548;48.402;9.990;2024-03-02T14:38:48;12.70;99.90
7016;DHT22;3548;48.402;9.990;2024-03-02T14:41:14;12.80;99.90
7016;DHT22;3548;48.402;9.990;2024-03-02T14:43:40;12.90;99.90
7016;DHT22;3548;48.402;9.990;2024-03-02T14:46:06;12.80;99.90
7016;DHT22;3548;48.402;9.990;2024-03-02T14:48:35;12.70;99.90
7016;DHT22;3548;48.402;9.990;2024-03-02T14:51:00;12.80;99.90
7016;DHT22;3548;48.402;9.990;2024-03-02T14:53:26;12.70;99.90
7016;DHT22;3548;48.402;9.990;2024-03-02T14:55:52;12.70;99.90
7016;DHT22;3548;48.402;9.990;2024-03-02T14:58:17;12.70;99.90
7016;DHT22;3548;48.402;9.990;2024-03-02T15:00:43;12.70;99.90
7016;DHT22;3548;48.402;9.990;2024-03-02T15:03:09;12.80;99.90
7016;DHT22;3548;48.402;9.990;2024-03-02T15:05:35;12.80;99.90
7016;DHT22;3548;48.402;9.990;2024-03-02T15:08:01;12.80;99.90
7016;DHT22;3548;48.402;9.990;2024-03-02T15:10:29;12.80;99.90
7016;DHT22;3548;48.402;9.990;2024-03-02T15:12:55;12.80;99.90
7016;DHT22;3548;48.402;9.990;2024-03-02T15:15:20;12.80;99.90
7016;DHT22;3548;48.402;9.990;2024-03-02T15:17:46;12.70;99.90
7016;DHT22;3548;48.402;9.990;2024-03-02T15:20:11;12.60;99.90
7016;DHT22;3548;48.402;9.990;2024-03-02T15:22:37;12.60;99.90
7016;DHT22;3548;48.402;9.990;2024-03-02T15:25:03;12.60;99.90
7016;DHT22;3548;48.402;9.990;2024-03-02T15:27:28;12.60;99.90
7016;DHT22;3548;48.402;9.990;2024-03-02T15:29:54;12.60;99.90
7016;DHT22;3548;48.402;9.990;2024-03-02T15:32:22;12.60;99.90
7016;DHT22;3548;48.402;9.990;2024-03-02T15:34:48;12.60;99.90
7016;DHT22;3548;48.402;9.990;2024-03-02T15:37:13;12.60;99.90
7016;DHT22;3548;48.402;9.990;2024-03-02T15:39:39;12.50;99.90
7016;DHT22;3548;48.402;9.990;2024-03-02T15:42:05;12.50;99.90
7016;DHT22;3548;48.402;9.990;2024-03-02T15:44:31;12.40;99.90
7016;DHT22;3548;48.402;9.990;2024-03-02T15:46:57;12.40;99.90
7016;DHT22;3548;48.402;9.990;2024-03-02T15:49:23;12.30;99.90
7016;DHT22;3548;48.402;9.990;2024-03-02T15:51:49;12.20;99.90
7016;DHT22;3548;48.402;9.990;2024-03-02T15:54:14;12.20;99.90
7016;DHT22;3548;48.402;9.990;2024-03-02T15:56:40;12.10;99.90
7016;DHT22;3548;48.402;9.990;2024-03-02T15:59:06;12.10;99.90
7016;DHT22;3548;48.402;9.990;2024-03-02T16:01:32;12.10;99.90
7016;DHT22;3548;48.402;9.990;2024-03-02T16:03:57;12.00;99.90
7016;DHT22;3548;48.402;9.990;2024-03-02T16:06:23;12.00;99.90
7016;DHT22;3548;48.402;9.990;2024-03-02T16:08:49;11.90;99.90
7016;DHT22;3548;48.402;9.990;2024-03-02T16:11:14;11.90;99.90
7016;DHT22;3548;48.402;9.990;2024-03-02T16:13:40;11.80;99.90
7016;DHT22;3548;48.402;9.990;2024-03-02T16:16:05;11.80;99.90
7016;DHT22;3548;48.402;9.990;2024-03-02T16:18:31;11.70;99.90